createdAt,value
2018-07-09T00:00:52.253Z,27.04
2018-07-09T00:01:52.195Z,26.97
2018-07-09T00:02:52.132Z,26.97
2018-07-09T00:03:52.069Z,26.92
2018-07-09T00:04:52.012Z,27.03
2018-07-09T00:05:51.936Z,27.04
2018-07-09T00:06:51.886Z,27.04
2018-07-09T00:07:51.824Z,27.07
2018-07-09T00:08:51.777Z,27.14
2018-07-09T00:09:51.692Z,27.12
2018-07-09T00:10:51.658Z,27.12
2018-07-09T00:11:51.576Z,27.13
2018-07-09T00:12:51.519Z,27.17
2018-07-09T00:13:51.467Z,27.12
2018-07-09T00:14:51.407Z,27.13
2018-07-09T00:15:51.335Z,27.18
2018-07-09T00:16:51.284Z,27.14
2018-07-09T00:17:51.220Z,27.17
2018-07-09T00:18:51.157Z,27.14
2018-07-09T00:19:51.096Z,27.22
2018-07-09T00:20:51.030Z,26.92
2018-07-09T00:21:51.007Z,26.87
2018-07-09T00:22:50.922Z,26.76
2018-07-09T00:23:50.842Z,26.81
2018-07-09T00:24:50.798Z,26.84
2018-07-09T00:25:50.727Z,26.85
2018-07-09T00:26:50.656Z,26.87
2018-07-09T00:27:50.619Z,26.91
2018-07-09T00:28:50.553Z,26.92
2018-07-09T00:29:50.489Z,26.92
2018-07-09T00:30:50.427Z,26.99
2018-07-09T00:31:50.354Z,27.00
2018-07-09T00:32:50.298Z,26.87
2018-07-09T00:33:50.242Z,26.85
2018-07-09T00:34:50.184Z,26.73
2018-07-09T00:35:50.124Z,26.73
2018-07-09T00:36:50.055Z,26.72
2018-07-09T00:37:49.992Z,26.75
2018-07-09T00:38:49.924Z,26.76
2018-07-09T00:39:49.874Z,26.76
2018-07-09T00:40:49.812Z,26.88
2018-07-09T00:41:49.752Z,26.97
2018-07-09T00:42:49.689Z,26.95
2018-07-09T00:43:49.621Z,26.97
2018-07-09T00:44:49.569Z,26.99
2018-07-09T00:45:49.515Z,26.99
2018-07-09T00:46:49.443Z,27.09
2018-07-09T00:47:49.383Z,27.12
2018-07-09T00:48:49.320Z,27.12
2018-07-09T00:49:49.261Z,27.07
2018-07-09T00:50:49.219Z,27.10
2018-07-09T00:51:49.139Z,27.07
2018-07-09T00:52:49.093Z,27.14
2018-07-09T00:53:49.030Z,27.13
2018-07-09T00:54:48.976Z,27.10
2018-07-09T00:55:48.901Z,27.22
2018-07-09T00:56:48.832Z,27.21
2018-07-09T00:57:48.770Z,27.12
2018-07-09T00:58:48.713Z,27.14
2018-07-09T00:59:48.660Z,27.21
2018-07-09T01:00:48.598Z,27.13
2018-07-09T01:01:48.542Z,27.18
2018-07-09T01:02:48.496Z,27.17
2018-07-09T01:03:48.422Z,27.18
2018-07-09T01:04:48.347Z,27.19
2018-07-09T01:05:48.303Z,27.14
2018-07-09T01:06:48.226Z,27.06
2018-07-09T01:07:48.168Z,27.09
2018-07-09T01:08:48.107Z,27.00
2018-07-09T01:09:48.044Z,27.06
2018-07-09T01:10:47.995Z,26.94
2018-07-09T01:11:47.928Z,26.99
2018-07-09T01:12:47.863Z,26.94
2018-07-09T01:13:47.805Z,26.97
2018-07-09T01:14:47.731Z,26.92
2018-07-09T01:15:47.723Z,26.99
2018-07-09T01:16:47.630Z,26.91
2018-07-09T01:17:47.553Z,26.87
2018-07-09T01:18:47.493Z,26.95
2018-07-09T01:19:47.439Z,26.84
2018-07-09T01:20:47.373Z,26.85
2018-07-09T01:21:47.323Z,26.84
2018-07-09T01:22:47.258Z,26.84
2018-07-09T01:23:47.194Z,26.87
2018-07-09T01:24:47.136Z,26.87
2018-07-09T01:25:47.085Z,26.85
2018-07-09T01:26:47.028Z,26.81
2018-07-09T01:27:46.970Z,26.85
2018-07-09T01:28:46.898Z,26.85
2018-07-09T01:29:46.821Z,26.85
2018-07-09T01:30:46.759Z,26.85
2018-07-09T01:31:46.700Z,26.88
2018-07-09T01:32:46.641Z,26.88
2018-07-09T01:33:46.577Z,26.87
2018-07-09T01:34:46.512Z,26.95
2018-07-09T01:35:46.463Z,26.97
2018-07-09T01:36:46.415Z,26.92
2018-07-09T01:37:46.338Z,26.82
2018-07-09T01:38:46.287Z,26.87
2018-07-09T01:39:46.207Z,26.87
2018-07-09T01:40:46.159Z,26.91
2018-07-09T01:41:46.119Z,26.87
2018-07-09T01:42:46.028Z,26.81
2018-07-09T01:43:45.963Z,26.73
2018-07-09T01:44:45.900Z,26.72
2018-07-09T01:45:45.857Z,26.72
2018-07-09T01:46:45.789Z,26.72
2018-07-09T01:47:45.723Z,26.67
2018-07-09T01:48:45.665Z,26.60
2018-07-09T01:49:45.607Z,26.57
2018-07-09T01:50:45.537Z,26.50
2018-07-09T01:51:45.485Z,26.57
2018-07-09T01:52:45.422Z,26.48
2018-07-09T01:53:45.362Z,26.52
2018-07-09T01:54:45.298Z,26.57
2018-07-09T01:55:45.231Z,26.55
2018-07-09T01:56:45.174Z,26.37
2018-07-09T01:57:45.117Z,26.18
2018-07-09T01:58:45.058Z,26.17
2018-07-09T01:59:44.992Z,26.20
2018-07-09T02:00:44.974Z,26.23
2018-07-09T02:01:44.862Z,26.26
2018-07-09T02:02:44.798Z,26.35
2018-07-09T02:03:44.737Z,26.30
2018-07-09T02:04:44.676Z,26.40
2018-07-09T02:05:44.670Z,26.36
2018-07-09T02:06:44.557Z,26.33
2018-07-09T02:07:44.499Z,26.43
2018-07-09T02:08:44.434Z,26.45
2018-07-09T02:09:44.379Z,26.43
2018-07-09T02:10:44.316Z,26.37
2018-07-09T02:11:44.257Z,26.47
2018-07-09T02:12:44.270Z,26.40
2018-07-09T02:13:44.157Z,26.17
2018-07-09T02:14:44.181Z,26.21
2018-07-09T02:15:44.017Z,26.18
2018-07-09T02:16:43.941Z,26.15
2018-07-09T02:17:43.887Z,26.20
2018-07-09T02:18:43.825Z,26.23
2018-07-09T02:19:43.750Z,26.21
2018-07-09T02:20:43.708Z,26.18
2018-07-09T02:21:43.627Z,26.18
2018-07-09T02:22:43.571Z,26.28
2018-07-09T02:23:43.521Z,26.30
2018-07-09T02:24:43.451Z,26.23
2018-07-09T02:25:43.395Z,26.13
2018-07-09T02:26:43.319Z,26.06
2018-07-09T02:27:43.272Z,26.12
2018-07-09T02:28:43.210Z,26.09
2018-07-09T02:29:43.153Z,26.09
2018-07-09T02:30:43.115Z,26.09
2018-07-09T02:31:43.026Z,26.12
2018-07-09T02:32:42.962Z,26.06
2018-07-09T02:33:42.893Z,26.07
2018-07-09T02:34:42.837Z,25.97
2018-07-09T02:35:42.771Z,25.91
2018-07-09T02:36:42.720Z,25.98
2018-07-09T02:37:42.654Z,26.02
2018-07-09T02:38:42.592Z,25.99
2018-07-09T02:39:42.535Z,26.01
2018-07-09T02:40:42.470Z,25.98
2018-07-09T02:41:42.411Z,26.05
2018-07-09T02:42:42.354Z,26.07
2018-07-09T02:43:42.275Z,26.10
2018-07-09T02:44:42.216Z,26.05
2018-07-09T02:45:42.170Z,26.06
2018-07-09T02:46:42.095Z,25.99
2018-07-09T02:47:42.041Z,26.02
2018-07-09T02:48:42.013Z,25.98
2018-07-09T02:49:41.916Z,26.02
2018-07-09T02:50:41.850Z,25.95
2018-07-09T02:51:41.790Z,26.02
2018-07-09T02:52:41.733Z,25.95
2018-07-09T02:53:41.673Z,26.02
2018-07-09T02:54:41.597Z,25.77
2018-07-09T02:55:41.537Z,25.64
2018-07-09T02:56:41.473Z,25.64
2018-07-09T02:57:41.409Z,25.60
2018-07-09T02:58:41.357Z,25.73
2018-07-09T02:59:41.291Z,25.76
2018-07-09T03:00:41.268Z,25.80
2018-07-09T03:01:41.177Z,25.88
2018-07-09T03:02:41.114Z,25.82
2018-07-09T03:03:41.089Z,25.87
2018-07-09T03:04:40.986Z,25.90
2018-07-09T03:05:40.927Z,25.88
2018-07-09T03:06:40.857Z,25.90
2018-07-09T03:07:40.821Z,25.94
2018-07-09T03:08:40.745Z,25.90
2018-07-09T03:09:40.683Z,25.92
2018-07-09T03:10:40.621Z,25.90
2018-07-09T03:11:40.550Z,25.91
2018-07-09T03:12:40.494Z,25.90
2018-07-09T03:13:40.441Z,25.76
2018-07-09T03:14:40.362Z,25.69
2018-07-09T03:15:40.321Z,25.61
2018-07-09T03:16:40.256Z,25.65
2018-07-09T03:17:40.179Z,25.61
2018-07-09T03:18:40.127Z,25.67
2018-07-09T03:19:40.087Z,25.65
2018-07-09T03:20:40.013Z,25.61
2018-07-09T03:21:39.931Z,25.58
2018-07-09T03:22:39.873Z,25.58
2018-07-09T03:23:39.833Z,25.61
2018-07-09T03:24:39.758Z,25.67
2018-07-09T03:25:39.689Z,25.55
2018-07-09T03:26:39.624Z,25.62
2018-07-09T03:27:39.560Z,25.47
2018-07-09T03:28:39.509Z,25.42
2018-07-09T03:29:39.466Z,25.55
2018-07-09T03:30:39.387Z,25.51
2018-07-09T03:31:39.316Z,25.58
2018-07-09T03:32:39.264Z,25.36
2018-07-09T03:33:39.197Z,25.50
2018-07-09T03:34:39.131Z,25.46
2018-07-09T03:35:39.077Z,25.54
2018-07-09T03:36:39.006Z,25.64
2018-07-09T03:37:38.950Z,25.52
2018-07-09T03:38:38.876Z,25.58
2018-07-09T03:39:38.875Z,25.70
2018-07-09T03:40:38.757Z,25.70
2018-07-09T03:41:38.724Z,25.45
2018-07-09T03:42:38.637Z,25.51
2018-07-09T03:43:38.571Z,25.45
2018-07-09T03:44:38.510Z,25.51
2018-07-09T03:45:38.453Z,25.45
2018-07-09T03:46:38.384Z,25.46
2018-07-09T03:47:38.333Z,25.55
2018-07-09T03:48:38.284Z,25.60
2018-07-09T03:49:38.207Z,25.43
2018-07-09T03:50:38.137Z,25.54
2018-07-09T03:51:38.075Z,25.54
2018-07-09T03:52:38.032Z,25.50
2018-07-09T03:53:37.954Z,25.45
2018-07-09T03:54:37.900Z,25.35
2018-07-09T03:55:37.827Z,25.36
2018-07-09T03:56:37.759Z,25.38
2018-07-09T03:57:37.720Z,25.35
2018-07-09T03:58:37.653Z,25.38
2018-07-09T03:59:37.585Z,25.39
2018-07-09T04:00:37.524Z,25.33
2018-07-09T04:01:37.466Z,25.36
2018-07-09T04:02:37.405Z,25.28
2018-07-09T04:03:37.332Z,25.28
2018-07-09T04:04:37.277Z,25.27
2018-07-09T04:05:37.208Z,25.21
2018-07-09T04:06:37.155Z,25.24
2018-07-09T04:07:37.093Z,25.25
2018-07-09T04:08:37.046Z,25.24
2018-07-09T04:09:36.968Z,25.06
2018-07-09T04:10:36.905Z,24.99
2018-07-09T04:11:36.844Z,24.93
2018-07-09T04:12:36.777Z,25.08
2018-07-09T04:13:36.718Z,24.88
2018-07-09T04:14:36.666Z,24.96
2018-07-09T04:15:36.589Z,24.96
2018-07-09T04:16:36.529Z,24.88
2018-07-09T04:17:36.468Z,25.06
2018-07-09T04:18:36.408Z,25.13
2018-07-09T04:19:36.350Z,25.08
2018-07-09T04:20:39.090Z,25.08
2018-07-09T04:21:36.227Z,25.06
2018-07-09T04:22:36.153Z,25.06
2018-07-09T04:23:36.107Z,25.05
2018-07-09T04:24:36.045Z,25.10
2018-07-09T04:25:35.987Z,25.21
2018-07-09T04:26:35.932Z,25.23
2018-07-09T04:27:35.858Z,25.28
2018-07-09T04:28:35.800Z,25.24
2018-07-09T04:29:35.737Z,25.23
2018-07-09T04:30:35.672Z,25.24
2018-07-09T04:31:35.598Z,25.20
2018-07-09T04:32:35.545Z,25.32
2018-07-09T04:33:35.483Z,25.30
2018-07-09T04:34:35.426Z,25.23
2018-07-09T04:35:35.359Z,25.10
2018-07-09T04:36:35.295Z,25.06
2018-07-09T04:37:35.238Z,25.06
2018-07-09T04:38:35.166Z,24.90
2018-07-09T04:39:35.100Z,24.68
2018-07-09T04:40:35.053Z,24.32
2018-07-09T04:41:34.995Z,24.40
2018-07-09T04:42:34.916Z,24.45
2018-07-09T04:43:34.856Z,24.47
2018-07-09T04:44:34.791Z,24.46
2018-07-09T04:45:34.731Z,24.47
2018-07-09T04:46:34.659Z,24.53
2018-07-09T04:47:34.614Z,24.37
2018-07-09T04:48:34.543Z,24.20
2018-07-09T04:49:34.484Z,24.08
2018-07-09T04:50:34.410Z,23.90
2018-07-09T04:51:34.366Z,23.79
2018-07-09T04:52:34.287Z,23.61
2018-07-09T04:53:34.287Z,23.57
2018-07-09T04:54:34.179Z,23.60
2018-07-09T04:55:34.104Z,23.68
2018-07-09T04:56:34.039Z,23.85
2018-07-09T04:57:33.984Z,23.98
2018-07-09T04:58:33.924Z,24.10
2018-07-09T04:59:33.861Z,24.28
2018-07-09T05:00:33.797Z,24.34
2018-07-09T05:01:33.727Z,24.31
2018-07-09T05:02:33.673Z,24.31
2018-07-09T05:03:33.599Z,24.39
2018-07-09T05:04:33.547Z,24.49
2018-07-09T05:05:33.540Z,24.45
2018-07-09T05:06:33.428Z,24.47
2018-07-09T05:07:33.355Z,24.34
2018-07-09T05:08:33.299Z,24.25
2018-07-09T05:09:33.236Z,24.18
2018-07-09T05:10:33.175Z,24.34
2018-07-09T05:11:33.097Z,24.27
2018-07-09T05:12:33.053Z,24.31
2018-07-09T05:13:32.989Z,24.18
2018-07-09T05:14:32.926Z,24.16
2018-07-09T05:15:32.862Z,24.20
2018-07-09T05:16:32.787Z,24.22
2018-07-09T05:17:32.729Z,24.09
2018-07-09T05:18:32.667Z,24.10
2018-07-09T05:19:32.609Z,24.13
2018-07-09T05:20:32.551Z,24.20
2018-07-09T05:21:32.488Z,24.30
2018-07-09T05:22:32.418Z,24.34
2018-07-09T05:23:32.362Z,24.40
2018-07-09T05:24:32.302Z,24.39
2018-07-09T05:25:32.236Z,24.35
2018-07-09T05:26:32.172Z,24.31
2018-07-09T05:27:32.146Z,24.43
2018-07-09T05:28:32.039Z,24.22
2018-07-09T05:29:31.997Z,24.13
2018-07-09T05:30:31.916Z,24.18
2018-07-09T05:31:31.849Z,24.18
2018-07-09T05:32:31.796Z,24.37
2018-07-09T05:33:31.737Z,24.35
2018-07-09T05:34:31.674Z,24.45
2018-07-09T05:35:31.603Z,24.39
2018-07-09T05:36:31.552Z,24.50
2018-07-09T05:37:31.498Z,24.57
2018-07-09T05:38:31.420Z,24.58
2018-07-09T05:39:31.353Z,24.65
2018-07-09T05:40:31.289Z,24.76
2018-07-09T05:41:31.225Z,24.80
2018-07-09T05:42:31.170Z,24.77
2018-07-09T05:43:31.093Z,24.61
2018-07-09T05:44:31.041Z,24.65
2018-07-09T05:45:30.980Z,24.62
2018-07-09T05:46:30.910Z,24.67
2018-07-09T05:47:30.846Z,24.68
2018-07-09T05:48:30.811Z,24.77
2018-07-09T05:49:30.725Z,24.77
2018-07-09T05:50:30.668Z,24.73
2018-07-09T05:51:30.607Z,24.73
2018-07-09T05:52:30.527Z,24.76
2018-07-09T05:53:30.467Z,24.77
2018-07-09T05:54:30.418Z,24.78
2018-07-09T05:55:30.345Z,24.71
2018-07-09T05:56:30.283Z,24.83
2018-07-09T05:57:30.222Z,24.84
2018-07-09T05:58:30.187Z,24.80
2018-07-09T05:59:30.124Z,24.76
2018-07-09T06:00:30.043Z,24.71
2018-07-09T06:01:29.995Z,24.87
2018-07-09T06:02:29.916Z,24.85
2018-07-09T06:03:29.858Z,24.81
2018-07-09T06:04:29.778Z,24.71
2018-07-09T06:05:29.777Z,24.76
2018-07-09T06:06:29.658Z,24.76
2018-07-09T06:07:29.610Z,24.73
2018-07-09T06:08:29.535Z,24.81
2018-07-09T06:09:29.471Z,24.77
2018-07-09T06:10:29.450Z,24.81
2018-07-09T06:11:29.411Z,24.88
2018-07-09T06:12:29.281Z,24.78
2018-07-09T06:13:29.236Z,24.80
2018-07-09T06:14:29.168Z,24.76
2018-07-09T06:15:29.093Z,24.78
2018-07-09T06:16:29.027Z,24.90
2018-07-09T06:17:28.966Z,24.93
2018-07-09T06:18:28.909Z,24.98
2018-07-09T06:19:28.993Z,24.93
2018-07-09T06:20:28.790Z,24.91
2018-07-09T06:21:28.720Z,24.91
2018-07-09T06:22:28.663Z,24.96
2018-07-09T06:23:28.605Z,24.90
2018-07-09T06:24:28.544Z,24.96
2018-07-09T06:25:28.549Z,24.77
2018-07-09T06:26:28.407Z,24.76
2018-07-09T06:27:28.357Z,24.69
2018-07-09T06:28:28.288Z,24.77
2018-07-09T06:29:28.216Z,24.65
2018-07-09T06:30:28.165Z,24.55
2018-07-09T06:31:28.130Z,24.43
2018-07-09T06:32:28.032Z,24.55
2018-07-09T06:33:27.983Z,24.57
2018-07-09T06:34:27.916Z,24.76
2018-07-09T06:35:27.855Z,24.88
2018-07-09T06:36:27.785Z,24.98
2018-07-09T06:37:27.720Z,25.06
2018-07-09T06:38:27.671Z,25.18
2018-07-09T06:39:27.605Z,25.25
2018-07-09T06:40:27.543Z,25.39
2018-07-09T06:41:27.475Z,25.51
2018-07-09T06:42:27.414Z,25.51
2018-07-09T06:43:27.364Z,25.64
2018-07-09T06:44:27.290Z,25.72
2018-07-09T06:45:27.248Z,25.83
2018-07-09T06:46:27.178Z,25.92
2018-07-09T06:47:27.119Z,26.05
2018-07-09T06:48:27.060Z,25.99
2018-07-09T06:49:26.993Z,26.09
2018-07-09T06:50:26.925Z,26.17
2018-07-09T06:51:26.856Z,26.20
2018-07-09T06:52:26.804Z,26.26
2018-07-09T06:53:26.734Z,26.44
2018-07-09T06:54:26.690Z,26.18
2018-07-09T06:55:26.622Z,26.32
2018-07-09T06:56:26.565Z,26.39
2018-07-09T06:57:26.504Z,26.29
2018-07-09T06:58:26.437Z,26.39
2018-07-09T06:59:26.384Z,26.45
2018-07-09T07:00:26.316Z,26.37
2018-07-09T07:01:26.248Z,26.47
2018-07-09T07:02:26.271Z,26.50
2018-07-09T07:03:26.122Z,26.48
2018-07-09T07:04:26.076Z,26.65
2018-07-09T07:05:26.006Z,26.52
2018-07-09T07:06:25.959Z,26.45
2018-07-09T07:07:25.893Z,26.39
2018-07-09T07:08:25.835Z,26.44
2018-07-09T07:09:25.781Z,26.52
2018-07-09T07:10:25.703Z,26.57
2018-07-09T07:11:25.650Z,26.50
2018-07-09T07:12:25.583Z,26.57
2018-07-09T07:13:25.521Z,26.69
2018-07-09T07:14:25.504Z,26.54
2018-07-09T07:15:25.405Z,26.50
2018-07-09T07:16:25.349Z,26.55
2018-07-09T07:17:25.282Z,26.66
2018-07-09T07:18:25.221Z,26.58
2018-07-09T07:19:25.193Z,26.52
2018-07-09T07:20:25.118Z,26.45
2018-07-09T07:21:25.053Z,26.43
2018-07-09T07:22:24.978Z,26.35
2018-07-09T07:23:24.928Z,25.99
2018-07-09T07:24:24.871Z,26.07
2018-07-09T07:25:24.803Z,26.02
2018-07-09T07:26:24.765Z,26.02
2018-07-09T07:27:24.695Z,26.21
2018-07-09T07:28:24.628Z,26.18
2018-07-09T07:29:24.554Z,26.18
2018-07-09T07:30:24.503Z,26.32
2018-07-09T07:31:24.515Z,26.43
2018-07-09T07:32:24.377Z,26.51
2018-07-09T07:33:24.328Z,26.63
2018-07-09T07:34:24.253Z,26.63
2018-07-09T07:35:24.213Z,26.66
2018-07-09T07:36:24.141Z,26.70
2018-07-09T07:37:24.108Z,26.66
2018-07-09T07:38:24.025Z,26.66
2018-07-09T07:39:24.011Z,26.73
2018-07-09T07:40:23.894Z,26.81
2018-07-09T07:41:23.846Z,26.81
2018-07-09T07:42:23.775Z,26.84
2018-07-09T07:43:23.722Z,26.84
2018-07-09T07:44:23.660Z,26.82
2018-07-09T07:45:23.593Z,26.75
2018-07-09T07:46:23.527Z,26.75
2018-07-09T07:47:23.483Z,26.88
2018-07-09T07:48:23.419Z,26.88
2018-07-09T07:49:23.345Z,27.03
2018-07-09T07:50:23.343Z,27.12
2018-07-09T07:51:23.238Z,27.14
2018-07-09T07:52:23.179Z,27.22
2018-07-09T07:53:23.129Z,27.31
2018-07-09T07:54:23.054Z,27.36
2018-07-09T07:55:22.988Z,27.44
2018-07-09T07:56:22.935Z,27.46
2018-07-09T07:57:22.875Z,27.65
2018-07-09T07:58:22.824Z,27.74
2018-07-09T07:59:22.763Z,27.74
2018-07-09T08:00:22.694Z,27.87
2018-07-09T08:01:22.641Z,27.85
2018-07-09T08:02:22.581Z,27.82
2018-07-09T08:03:22.526Z,27.81
2018-07-09T08:04:22.463Z,27.78
2018-07-09T08:05:22.405Z,27.65
2018-07-09T08:06:22.334Z,27.65
2018-07-09T08:07:22.282Z,27.78
2018-07-09T08:08:22.217Z,27.87
2018-07-09T08:09:22.248Z,28.03
2018-07-09T08:10:22.102Z,28.04
2018-07-09T08:11:22.030Z,28.11
2018-07-09T08:13:29.349Z,28.11
2018-07-09T08:14:21.846Z,28.06
2018-07-09T08:15:21.786Z,28.02
2018-07-09T08:16:21.735Z,28.02
2018-07-09T08:17:21.680Z,27.79
2018-07-09T08:18:21.620Z,27.70
2018-07-09T08:19:21.554Z,27.75
2018-07-09T08:20:21.495Z,27.77
2018-07-09T08:21:21.441Z,27.81
2018-07-09T08:22:21.363Z,27.67
2018-07-09T08:23:21.313Z,27.79
2018-07-09T08:24:21.270Z,27.79
2018-07-09T08:25:21.224Z,27.87
2018-07-09T08:26:21.144Z,27.94
2018-07-09T08:27:21.071Z,28.02
2018-07-09T08:28:21.137Z,27.94
2018-07-09T08:29:20.970Z,27.90
2018-07-09T08:30:20.897Z,28.02
2018-07-09T08:31:20.916Z,28.02
2018-07-09T08:32:20.778Z,27.79
2018-07-09T08:33:20.733Z,27.87
2018-07-09T08:34:20.659Z,27.92
2018-07-09T08:35:20.590Z,28.04
2018-07-09T08:36:20.554Z,27.93
2018-07-09T08:37:20.482Z,28.03
2018-07-09T08:38:20.426Z,28.09
2018-07-09T08:39:20.377Z,28.15
2018-07-09T08:40:20.294Z,28.14
2018-07-09T08:41:20.247Z,28.12
2018-07-09T08:42:20.204Z,28.15
2018-07-09T08:43:20.135Z,28.22
2018-07-09T08:44:20.066Z,28.33
2018-07-09T08:45:20.011Z,28.33
2018-07-09T08:46:19.939Z,28.22
2018-07-09T08:47:19.955Z,28.24
2018-07-09T08:48:19.832Z,28.12
2018-07-09T08:49:19.766Z,28.11
2018-07-09T08:50:19.711Z,28.15
2018-07-09T08:51:19.648Z,28.27
2018-07-09T08:52:19.588Z,28.17
2018-07-09T08:53:19.530Z,28.24
2018-07-09T08:54:19.467Z,28.25
2018-07-09T08:55:19.498Z,28.36
2018-07-09T08:56:19.355Z,28.48
2018-07-09T08:57:19.300Z,28.54
2018-07-09T08:58:19.246Z,28.49
2018-07-09T08:59:19.176Z,28.37
2018-07-09T09:00:19.109Z,28.33
2018-07-09T09:01:19.053Z,28.33
2018-07-09T09:02:18.995Z,28.17
2018-07-09T09:03:18.928Z,28.25
2018-07-09T09:04:18.867Z,28.44
2018-07-09T09:05:18.817Z,28.37
2018-07-09T09:06:18.755Z,28.33
2018-07-09T09:07:18.698Z,28.40
2018-07-09T09:08:18.643Z,28.40
2018-07-09T09:09:18.571Z,28.44
2018-07-09T09:10:18.542Z,28.39
2018-07-09T09:11:18.462Z,28.51
2018-07-09T09:12:18.401Z,28.55
2018-07-09T09:13:18.345Z,28.55
2018-07-09T09:14:18.288Z,28.55
2018-07-09T09:15:18.232Z,28.46
2018-07-09T09:16:18.158Z,28.48
2018-07-09T09:17:18.103Z,28.43
2018-07-09T09:18:18.044Z,28.48
2018-07-09T09:19:17.982Z,28.58
2018-07-09T09:20:17.925Z,28.68
2018-07-09T09:21:17.863Z,28.77
2018-07-09T09:22:17.810Z,28.76
2018-07-09T09:23:17.757Z,28.77
2018-07-09T09:24:17.700Z,28.78
2018-07-09T09:25:17.639Z,28.78
2018-07-09T09:26:17.580Z,28.67
2018-07-09T09:27:17.560Z,28.66
2018-07-09T09:28:17.465Z,28.54
2018-07-09T09:29:17.394Z,28.59
2018-07-09T09:30:17.338Z,28.59
2018-07-09T09:31:17.357Z,28.67
2018-07-09T09:32:17.225Z,28.73
2018-07-09T09:33:17.172Z,28.85
2018-07-09T09:34:17.106Z,28.92
2018-07-09T09:35:17.052Z,28.86
2018-07-09T09:36:16.989Z,28.89
2018-07-09T09:37:16.928Z,28.86
2018-07-09T09:38:16.864Z,29.02
2018-07-09T09:39:16.807Z,29.09
2018-07-09T09:40:16.751Z,29.02
2018-07-09T09:41:16.703Z,29.04
2018-07-09T09:42:16.622Z,29.02
2018-07-09T09:43:16.572Z,28.85
2018-07-09T09:44:16.520Z,29.02
2018-07-09T09:45:16.459Z,29.09
2018-07-09T09:46:16.387Z,28.96
2018-07-09T09:47:16.342Z,29.02
2018-07-09T09:48:16.267Z,29.11
2018-07-09T09:49:16.238Z,29.05
2018-07-09T09:50:16.168Z,29.08
2018-07-09T09:51:16.101Z,29.11
2018-07-09T09:52:16.043Z,29.06
2018-07-09T09:53:15.990Z,29.06
2018-07-09T09:54:15.924Z,29.24
2018-07-09T09:55:15.873Z,29.08
2018-07-09T09:56:15.799Z,29.21
2018-07-09T09:57:15.742Z,29.18
2018-07-09T09:58:15.692Z,29.18
2018-07-09T09:59:15.635Z,29.28
2018-07-09T10:00:15.561Z,29.26
2018-07-09T10:01:15.515Z,29.16
2018-07-09T10:02:15.460Z,29.19
2018-07-09T10:03:15.407Z,29.28
2018-07-09T10:04:15.334Z,29.30
2018-07-09T10:05:15.288Z,29.33
2018-07-09T10:06:15.259Z,29.30
2018-07-09T10:07:15.158Z,29.41
2018-07-09T10:08:15.103Z,29.33
2018-07-09T10:09:15.053Z,29.30
2018-07-09T10:10:14.987Z,29.30
2018-07-09T10:11:14.917Z,29.24
2018-07-09T10:12:14.876Z,29.21
2018-07-09T10:13:14.816Z,29.39
2018-07-09T10:14:14.747Z,29.37
2018-07-09T10:15:14.698Z,29.33
2018-07-09T10:16:14.626Z,29.37
2018-07-09T10:17:14.576Z,29.43
2018-07-09T10:18:14.518Z,29.51
2018-07-09T10:19:14.463Z,29.52
2018-07-09T10:20:14.411Z,29.64
2018-07-09T10:21:14.335Z,29.58
2018-07-09T10:22:14.279Z,29.63
2018-07-09T10:23:14.280Z,29.70
2018-07-09T10:24:14.162Z,29.73
2018-07-09T10:25:14.115Z,29.70
2018-07-09T10:26:14.052Z,29.78
2018-07-09T10:27:13.998Z,29.73
2018-07-09T10:28:13.936Z,29.68
2018-07-09T10:29:13.871Z,29.80
2018-07-09T10:30:13.815Z,29.74
2018-07-09T10:31:13.769Z,29.74
2018-07-09T10:32:13.710Z,29.70
2018-07-09T10:33:13.660Z,29.82
2018-07-09T10:34:13.609Z,29.74
2018-07-09T10:35:13.552Z,29.74
2018-07-09T10:36:13.468Z,29.78
2018-07-09T10:37:13.422Z,29.78
2018-07-09T10:38:13.369Z,29.85
2018-07-09T10:39:13.317Z,29.85
2018-07-09T10:40:13.251Z,29.92
2018-07-09T10:41:13.193Z,29.92
2018-07-09T10:42:13.137Z,29.92
2018-07-09T10:43:13.088Z,29.94
2018-07-09T10:44:13.014Z,29.98
2018-07-09T10:45:12.969Z,29.94
2018-07-09T10:46:12.902Z,30.00
2018-07-09T10:47:12.855Z,29.97
2018-07-09T10:48:12.782Z,29.90
2018-07-09T10:49:12.717Z,29.92
2018-07-09T10:50:12.665Z,29.92
2018-07-09T10:51:12.603Z,29.97
2018-07-09T10:52:12.559Z,29.98
2018-07-09T10:53:12.490Z,30.02
2018-07-09T10:54:12.440Z,29.98
2018-07-09T10:55:12.406Z,30.05
2018-07-09T10:56:12.329Z,30.04
2018-07-09T10:57:12.271Z,30.01
2018-07-09T10:58:12.202Z,30.07
2018-07-09T10:59:12.151Z,30.04
2018-07-09T11:00:12.088Z,30.04
2018-07-09T11:01:12.063Z,30.07
2018-07-09T11:02:11.975Z,30.16
2018-07-09T11:03:11.926Z,30.23
2018-07-09T11:04:11.867Z,30.24
2018-07-09T11:05:11.796Z,30.24
2018-07-09T11:06:11.741Z,30.24
2018-07-09T11:07:11.683Z,30.26
2018-07-09T11:08:11.630Z,30.19
2018-07-09T11:09:11.571Z,30.29
2018-07-09T11:10:11.522Z,30.20
2018-07-09T11:11:11.458Z,30.29
2018-07-09T11:12:11.400Z,30.31
2018-07-09T11:13:11.336Z,30.38
2018-07-09T11:14:11.273Z,30.42
2018-07-09T11:15:11.227Z,30.37
2018-07-09T11:16:11.175Z,30.38
2018-07-09T11:17:11.110Z,30.39
2018-07-09T11:18:11.044Z,30.51
2018-07-09T11:19:10.999Z,30.47
2018-07-09T11:20:10.943Z,30.45
2018-07-09T11:21:10.906Z,30.49
2018-07-09T11:22:10.831Z,30.35
2018-07-09T11:23:10.762Z,30.37
2018-07-09T11:24:10.711Z,30.35
2018-07-09T11:25:10.645Z,30.38
2018-07-09T11:26:10.600Z,30.31
2018-07-09T11:27:10.525Z,30.32
2018-07-09T11:28:10.484Z,30.37
2018-07-09T11:29:10.433Z,30.39
2018-07-09T11:30:10.358Z,30.34
2018-07-09T11:31:10.298Z,30.31
2018-07-09T11:32:10.240Z,30.38
2018-07-09T11:33:10.177Z,30.32
2018-07-09T11:34:10.122Z,30.27
2018-07-09T11:35:10.069Z,30.31
2018-07-09T11:36:10.091Z,30.31
2018-07-09T11:37:09.967Z,30.32
2018-07-09T11:38:09.900Z,30.42
2018-07-09T11:39:09.834Z,30.43
2018-07-09T11:40:09.787Z,30.45
2018-07-09T11:41:09.746Z,30.45
2018-07-09T11:42:09.661Z,30.47
2018-07-09T11:43:09.608Z,30.49
2018-07-09T11:44:09.590Z,30.46
2018-07-09T11:45:09.501Z,30.45
2018-07-09T11:46:09.428Z,30.46
2018-07-09T11:47:09.379Z,30.49
2018-07-09T11:48:09.332Z,30.49
2018-07-09T11:49:09.264Z,30.42
2018-07-09T11:50:09.207Z,30.46
2018-07-09T11:51:09.147Z,30.46
2018-07-09T11:52:09.086Z,30.42
2018-07-09T11:53:09.030Z,30.45
2018-07-09T11:54:08.971Z,30.53
2018-07-09T11:55:08.915Z,30.49
2018-07-09T11:56:08.884Z,30.53
2018-07-09T11:57:08.789Z,30.51
2018-07-09T11:58:08.740Z,30.49
2018-07-09T11:59:08.686Z,30.57
2018-07-09T12:00:08.610Z,30.61
2018-07-09T12:01:08.591Z,30.57
2018-07-09T12:02:08.504Z,30.61
2018-07-09T12:03:08.449Z,30.60
2018-07-09T12:04:08.380Z,30.58
2018-07-09T12:05:08.339Z,30.65
2018-07-09T12:06:08.260Z,30.64
2018-07-09T12:07:08.211Z,30.58
2018-07-09T12:08:08.155Z,30.57
2018-07-09T12:09:08.104Z,30.58
2018-07-09T12:10:08.044Z,30.67
2018-07-09T12:11:07.974Z,30.65
2018-07-09T12:12:07.923Z,30.73
2018-07-09T12:13:07.865Z,30.65
2018-07-09T12:14:07.807Z,30.79
2018-07-09T12:15:07.747Z,30.80
2018-07-09T12:16:07.687Z,30.77
2018-07-09T12:17:07.628Z,30.76
2018-07-09T12:18:07.578Z,30.77
2018-07-09T12:19:07.513Z,30.91
2018-07-09T12:20:07.460Z,30.80
2018-07-09T12:21:07.404Z,30.75
2018-07-09T12:22:07.329Z,30.82
2018-07-09T12:23:07.276Z,30.88
2018-07-09T12:24:07.222Z,30.94
2018-07-09T12:25:07.159Z,30.77
2018-07-09T12:26:07.121Z,30.76
2018-07-09T12:27:07.050Z,30.76
2018-07-09T12:28:06.999Z,30.82
2018-07-09T12:29:06.987Z,30.77
2018-07-09T12:30:06.874Z,30.80
2018-07-09T12:31:06.825Z,30.80
2018-07-09T12:32:06.759Z,30.77
2018-07-09T12:33:06.716Z,30.88
2018-07-09T12:34:06.639Z,30.95
2018-07-09T12:35:06.583Z,30.91
2018-07-09T12:36:06.546Z,30.97
2018-07-09T12:37:06.477Z,30.89
2018-07-09T12:38:06.411Z,30.92
2018-07-09T12:39:06.345Z,30.98
2018-07-09T12:40:06.308Z,30.94
2018-07-09T12:41:06.244Z,30.94
2018-07-09T12:42:06.183Z,30.94
2018-07-09T12:43:06.122Z,30.99
2018-07-09T12:44:06.084Z,31.01
2018-07-09T12:45:05.996Z,30.98
2018-07-09T12:46:05.957Z,30.88
2018-07-09T12:47:05.893Z,31.02
2018-07-09T12:48:05.831Z,30.98
2018-07-09T12:49:05.774Z,30.95
2018-07-09T12:50:05.719Z,31.02
2018-07-09T12:51:05.679Z,31.04
2018-07-09T12:52:05.608Z,31.06
2018-07-09T12:53:05.536Z,31.10